Falconia — H3QI — position and weather

sailwx.info

Track history (hours):
 
Tides and Currents Weather Stations Pressure Air Temp Water Temp Dewpoint Dewpoint Depression Visibility Wind Speed Wind Dir Waves Ship Positions

Falconia

Last reported at 2015-Feb-16 10:28 UTC. Time now 2015-May-03 20:56 UTC.
Position N 35°15' E 119°57'.
Warning: this ship's position is months out of date.

Length 88 m; draft 4.1 m.

Type: Cargo ship. MMSI: 353620000.

Date/timePositionNaut miles runAvg speedWind from/ knotsBaromVisibWave heightAir tempDewpointWater temp
2015-Feb-16 10:28N 35°15' E 119°57'1111.8
2015-Feb-16 09:33N 35°16' E 119°44'1110.8
2015-Feb-16 08:33N 35°21' E 119°33'2 1.6
2015-Feb-16 07:30N 35°23' E 119°32'0 0.0
2015-Feb-16 06:29N 35°23' E 119°32'0 0.0
2015-Feb-16 05:29N 35°23' E 119°32'0 0.0
2015-Feb-16 04:29N 35°23' E 119°32'0 0.0
2015-Feb-16 03:23N 35°23' E 119°32'0 0.0
2015-Feb-16 02:29N 35°23' E 119°32'0 0.0
2015-Feb-16 01:17N 35°23' E 119°32'0 0.0
2015-Feb-16 00:29N 35°23' E 119°32'0 0.0
2015-Feb-15 23:29N 35°23' E 119°32'0 0.0
2015-Feb-15 22:29N 35°23' E 119°32'0 0.0
2015-Feb-15 21:29N 35°23' E 119°32'0 0.0
2015-Feb-15 20:29N 35°23' E 119°32'0 0.0
2015-Feb-15 19:17N 35°23' E 119°32'0 0.0
2015-Feb-15 18:29N 35°23' E 119°32'0 0.0
2015-Feb-15 17:29N 35°23' E 119°32'0 0.0
2015-Feb-15 16:29N 35°23' E 119°32'0 0.0
2015-Feb-15 15:29N 35°23' E 119°32'0 0.0
2015-Feb-15 14:32N 35°23' E 119°32'1 1.2
2015-Feb-15 13:33N 35°21' E 119°33'5 4.8
2015-Feb-15 12:33N 35°20' E 119°38'0 0.2
2015-Feb-15 11:24N 35°20' E 119°38'0 0.1
2015-Feb-15 10:30N 35°20' E 119°38'0 0.0
2015-Feb-15 09:30N 35°20' E 119°38'0 0.0
2015-Feb-15 08:30N 35°20' E 119°38'0 0.0
2015-Feb-14 15:30N 35°20' E 119°38'0 0.0
2015-Feb-14 14:30N 35°20' E 119°38'0 0.0
2015-Feb-14 13:30N 35°20' E 119°38'0 0.0
2015-Feb-14 12:30N 35°20' E 119°38'0 0.0
2015-Feb-14 11:24N 35°20' E 119°38'0 0.0
2015-Feb-14 10:30N 35°20' E 119°38'0 0.0
2015-Feb-14 09:30N 35°20' E 119°38'0 0.1
2015-Feb-14 08:30N 35°20' E 119°38'0 0.0
2015-Feb-14 07:30N 35°20' E 119°38'0 0.2
2015-Feb-14 06:33N 35°20' E 119°38'6 5.2
2015-Feb-14 05:28N 35°23' E 119°32'0 0.0
2015-Feb-14 04:28N 35°23' E 119°32'0 0.0
2015-Feb-14 03:22N 35°23' E 119°32'0 0.0
2015-Feb-14 02:28N 35°23' E 119°32'0 0.0
2015-Feb-14 01:23N 35°23' E 119°32'0 0.0
2015-Feb-14 00:29N 35°23' E 119°32'0 0.0
2015-Feb-13 23:29N 35°23' E 119°32'0 0.0
2015-Feb-13 22:29N 35°23' E 119°32'0 0.0
2015-Feb-13 21:29N 35°23' E 119°32'0 0.0
2015-Feb-13 20:29N 35°23' E 119°32'0 0.0
2015-Feb-13 19:29N 35°23' E 119°32'0 0.0
2015-Feb-13 18:24N 35°23' E 119°32'0 0.0
2015-Feb-13 17:33N 35°23' E 119°32'1 0.8
2015-Feb-13 16:33N 35°22' E 119°33'6 6.1
2015-Feb-13 15:33N 35°19' E 119°39'2 2.0
2015-Feb-13 14:30N 35°19' E 119°42'0 0.0
2015-Feb-13 13:30N 35°19' E 119°42'0 0.0
2015-Feb-13 12:30N 35°19' E 119°42'0 0.1
2015-Feb-13 11:30N 35°19' E 119°42'0 0.0
2015-Feb-13 09:18N 35°19' E 119°42'0 0.0
2015-Feb-13 08:30N 35°19' E 119°42'0 0.0
2015-Feb-13 07:30N 35°19' E 119°42'0 0.0
2015-Feb-13 05:18N 35°19' E 119°42'0 0.0
2015-Feb-13 04:18N 35°19' E 119°42'0 0.1
2015-Feb-13 03:33N 35°19' E 119°42'7 7.3
2015-Feb-13 02:34N 35°14' E 119°48'  
Track history (hours):
 
Tides and Currents Weather Stations Pressure Air Temp Water Temp Dewpoint Dewpoint Depression Visibility Wind Speed Wind Dir Waves Ship Positions

Falconia

Last reported at 2015-Feb-16 10:28 UTC. Time now 2015-May-03 20:56 UTC.
Position N 35°15' E 119°57'.
Warning: this ship's position is months out of date.

Length 88 m; draft 4.1 m.

Type: Cargo ship. MMSI: 353620000.

Date/timePositionNaut miles runAvg speedWind from/ knotsBaromVisibWave heightAir tempDewpointWater temp
2015-Feb-16 10:28N 35°15' E 119°57'1111.8
2015-Feb-16 09:33N 35°16' E 119°44'1110.8
2015-Feb-16 08:33N 35°21' E 119°33'2 1.6
2015-Feb-16 07:30N 35°23' E 119°32'0 0.0
2015-Feb-16 06:29N 35°23' E 119°32'0 0.0
2015-Feb-16 05:29N 35°23' E 119°32'0 0.0
2015-Feb-16 04:29N 35°23' E 119°32'0 0.0
2015-Feb-16 03:23N 35°23' E 119°32'0 0.0
2015-Feb-16 02:29N 35°23' E 119°32'0 0.0
2015-Feb-16 01:17N 35°23' E 119°32'0 0.0
2015-Feb-16 00:29N 35°23' E 119°32'0 0.0
2015-Feb-15 23:29N 35°23' E 119°32'0 0.0
2015-Feb-15 22:29N 35°23' E 119°32'0 0.0
2015-Feb-15 21:29N 35°23' E 119°32'0 0.0
2015-Feb-15 20:29N 35°23' E 119°32'0 0.0
2015-Feb-15 19:17N 35°23' E 119°32'0 0.0
2015-Feb-15 18:29N 35°23' E 119°32'0 0.0
2015-Feb-15 17:29N 35°23' E 119°32'0 0.0
2015-Feb-15 16:29N 35°23' E 119°32'0 0.0
2015-Feb-15 15:29N 35°23' E 119°32'0 0.0
2015-Feb-15 14:32N 35°23' E 119°32'1 1.2
2015-Feb-15 13:33N 35°21' E 119°33'5 4.8
2015-Feb-15 12:33N 35°20' E 119°38'0 0.2
2015-Feb-15 11:24N 35°20' E 119°38'0 0.1
2015-Feb-15 10:30N 35°20' E 119°38'0 0.0
2015-Feb-15 09:30N 35°20' E 119°38'0 0.0
2015-Feb-15 08:30N 35°20' E 119°38'0 0.0
2015-Feb-14 15:30N 35°20' E 119°38'0 0.0
2015-Feb-14 14:30N 35°20' E 119°38'0 0.0
2015-Feb-14 13:30N 35°20' E 119°38'0 0.0
2015-Feb-14 12:30N 35°20' E 119°38'0 0.0
2015-Feb-14 11:24N 35°20' E 119°38'0 0.0
2015-Feb-14 10:30N 35°20' E 119°38'0 0.0
2015-Feb-14 09:30N 35°20' E 119°38'0 0.1
2015-Feb-14 08:30N 35°20' E 119°38'0 0.0
2015-Feb-14 07:30N 35°20' E 119°38'0 0.2
2015-Feb-14 06:33N 35°20' E 119°38'6 5.2
2015-Feb-14 05:28N 35°23' E 119°32'0 0.0
2015-Feb-14 04:28N 35°23' E 119°32'0 0.0
2015-Feb-14 03:22N 35°23' E 119°32'0 0.0
2015-Feb-14 02:28N 35°23' E 119°32'0 0.0
2015-Feb-14 01:23N 35°23' E 119°32'0 0.0
2015-Feb-14 00:29N 35°23' E 119°32'0 0.0
2015-Feb-13 23:29N 35°23' E 119°32'0 0.0
2015-Feb-13 22:29N 35°23' E 119°32'0 0.0
2015-Feb-13 21:29N 35°23' E 119°32'0 0.0
2015-Feb-13 20:29N 35°23' E 119°32'0 0.0
2015-Feb-13 19:29N 35°23' E 119°32'0 0.0
2015-Feb-13 18:24N 35°23' E 119°32'0 0.0
2015-Feb-13 17:33N 35°23' E 119°32'1 0.8
2015-Feb-13 16:33N 35°22' E 119°33'6 6.1
2015-Feb-13 15:33N 35°19' E 119°39'2 2.0
2015-Feb-13 14:30N 35°19' E 119°42'0 0.0
2015-Feb-13 13:30N 35°19' E 119°42'0 0.0
2015-Feb-13 12:30N 35°19' E 119°42'0 0.1
2015-Feb-13 11:30N 35°19' E 119°42'0 0.0
2015-Feb-13 09:18N 35°19' E 119°42'0 0.0
2015-Feb-13 08:30N 35°19' E 119°42'0 0.0
2015-Feb-13 07:30N 35°19' E 119°42'0 0.0
2015-Feb-13 05:18N 35°19' E 119°42'0 0.0
2015-Feb-13 04:18N 35°19' E 119°42'0 0.1
2015-Feb-13 03:33N 35°19' E 119°42'7 7.3
2015-Feb-13 02:34N 35°14' E 119°48'  

Dump ship's entire track history